Tusculam, Pennsylvania
Current Conditions -  °F | °C
As of 12:53 AM on Sunday 23 Nov 2014 (Local Time) from KRYT Reporting Station
Overcast Overcast  
Wind Chill: 39°   Ceiling: 11000
Heat Index: 39°   Visibility: 10mi
Dew Point: 19°   Wind: 0mph
Humidity: 45%   Direction: NA
Pressure: 30.15"   Gusts: NA
Location:  40.0414°N, 77.4967°W
Report Text: KRYT 230553Z AUTO 00000KT 10SM OVC110 04/M07 A3015 RMK AO2 SLP221 T00391072 10061 20017 58009 $
Loading
Personal Weather Stations






























Interactive Weather Map New forecast layout! Learn more

10-Day Weather Forecast

Advertisements
Track Severe Weather on mobile